createdAt,value
2019-06-20T00:00:06.697Z,6.08
2019-06-20T00:02:35.608Z,6.25
2019-06-20T00:05:06.980Z,6.97
2019-06-20T00:07:35.821Z,8.73
2019-06-20T00:10:05.310Z,6.70
2019-06-20T00:12:34.235Z,9.70
2019-06-20T00:15:03.434Z,7.75
2019-06-20T00:17:32.281Z,8.90
2019-06-20T00:20:01.171Z,6.67
2019-06-20T00:22:30.131Z,7.35
2019-06-20T00:25:02.791Z,7.58
2019-06-20T00:27:29.531Z,9.73
2019-06-20T00:29:58.479Z,8.33
2019-06-20T00:32:27.379Z,13.38
2019-06-20T00:34:56.194Z,11.60
2019-06-20T00:37:25.105Z,8.63
2019-06-20T00:39:53.953Z,9.55
2019-06-20T00:42:22.824Z,7.70
2019-06-20T00:44:51.746Z,6.75
2019-06-20T00:47:20.663Z,8.28
2019-06-20T00:49:49.621Z,12.25
2019-06-20T00:52:18.413Z,9.95
2019-06-20T00:54:47.358Z,8.73
2019-06-20T00:57:16.319Z,9.00
2019-06-20T00:59:45.206Z,10.38
2019-06-20T01:02:14.104Z,10.08
2019-06-20T01:04:43.064Z,11.35
2019-06-20T01:07:11.958Z,12.90
2019-06-20T01:09:40.801Z,10.38
2019-06-20T01:12:09.747Z,8.03
2019-06-20T01:14:38.623Z,9.78
2019-06-20T01:17:07.499Z,13.43
2019-06-20T01:19:36.414Z,8.78
2019-06-20T01:22:05.291Z,11.08
2019-06-20T01:24:34.173Z,8.10
2019-06-20T01:27:03.047Z,7.83
2019-06-20T01:29:31.932Z,9.78
2019-06-20T01:32:00.888Z,10.40
2019-06-20T01:34:29.819Z,8.33
2019-06-20T01:36:58.697Z,12.37
2019-06-20T01:39:27.601Z,9.25
2019-06-20T01:41:56.494Z,8.98
2019-06-20T01:44:25.381Z,11.90
2019-06-20T01:46:54.285Z,12.18
2019-06-20T01:49:23.114Z,10.28
2019-06-20T01:51:52.004Z,8.83
2019-06-20T01:54:21.033Z,14.03
2019-06-20T01:56:49.926Z,11.60
2019-06-20T01:59:18.861Z,14.50
2019-06-20T02:01:47.749Z,10.10
2019-06-20T02:04:16.636Z,16.45
2019-06-20T02:06:45.557Z,13.05
2019-06-20T02:09:14.479Z,9.95
2019-06-20T02:11:43.417Z,13.10
2019-06-20T02:14:12.291Z,11.18
2019-06-20T02:16:41.180Z,9.18
2019-06-20T02:19:10.061Z,8.40
2019-06-20T02:21:38.970Z,9.80
2019-06-20T02:24:07.903Z,8.78
2019-06-20T02:26:36.885Z,8.53
2019-06-20T02:29:05.834Z,9.63
2019-06-20T02:31:34.683Z,10.93
2019-06-20T02:34:03.594Z,10.28
2019-06-20T02:36:32.492Z,8.93
2019-06-20T02:39:01.375Z,9.78
2019-06-20T02:41:30.268Z,11.43
2019-06-20T02:43:59.186Z,11.33
2019-06-20T02:46:28.079Z,8.70
2019-06-20T02:48:56.950Z,8.28
2019-06-20T02:51:26.968Z,9.15
2019-06-20T02:53:55.803Z,11.93
2019-06-20T02:56:24.733Z,10.80
2019-06-20T02:58:53.639Z,11.10
2019-06-20T03:01:22.590Z,11.30
2019-06-20T03:03:51.477Z,12.80
2019-06-20T03:06:20.684Z,9.15
2019-06-20T03:08:49.583Z,12.50
2019-06-20T03:11:18.476Z,10.95
2019-06-20T03:13:47.385Z,9.95
2019-06-20T03:16:16.235Z,10.30
2019-06-20T03:18:45.183Z,11.65
2019-06-20T03:21:14.014Z,17.27
2019-06-20T03:23:42.961Z,9.63
2019-06-20T03:26:11.868Z,8.83
2019-06-20T03:28:40.800Z,8.60
2019-06-20T03:31:09.657Z,9.75
2019-06-20T03:33:38.729Z,9.05
2019-06-20T03:36:07.607Z,10.10
2019-06-20T03:38:36.496Z,9.15
2019-06-20T03:41:05.449Z,11.00
2019-06-20T03:43:34.250Z,9.43
2019-06-20T03:46:03.195Z,8.23
2019-06-20T03:48:32.105Z,11.90
2019-06-20T03:51:00.996Z,8.25
2019-06-20T03:53:29.956Z,10.15
2019-06-20T03:55:58.877Z,10.70
2019-06-20T03:58:27.735Z,11.55
2019-06-20T04:00:58.810Z,9.80
2019-06-20T04:03:27.648Z,8.60
2019-06-20T04:05:56.577Z,7.22
2019-06-20T04:08:25.485Z,9.45
2019-06-20T04:10:54.335Z,8.78
2019-06-20T04:13:23.158Z,8.23
2019-06-20T04:15:52.074Z,7.75
2019-06-20T04:18:20.944Z,6.53
2019-06-20T04:20:49.900Z,7.92
2019-06-20T04:23:18.854Z,7.37
2019-06-20T04:25:47.713Z,7.58
2019-06-20T04:28:16.684Z,7.35
2019-06-20T04:30:45.566Z,8.18
2019-06-20T04:33:14.439Z,6.92
2019-06-20T04:35:43.411Z,6.90
2019-06-20T04:38:12.295Z,6.87
2019-06-20T04:40:41.178Z,10.88
2019-06-20T04:43:10.186Z,7.20
2019-06-20T04:45:58.863Z,6.83
2019-06-20T04:48:27.826Z,6.28
2019-06-20T04:50:56.673Z,6.53
2019-06-20T04:53:25.553Z,5.22
2019-06-20T04:55:54.489Z,7.47
2019-06-20T04:58:23.381Z,13.50
2019-06-20T05:00:52.375Z,6.15
2019-06-20T05:03:21.267Z,14.83
2019-06-20T05:05:50.175Z,5.25
2019-06-20T05:08:19.080Z,5.45
2019-06-20T05:10:47.954Z,6.87
2019-06-20T05:13:16.848Z,5.75
2019-06-20T05:15:52.466Z,6.42
2019-06-20T05:18:16.311Z,3.98
2019-06-20T05:20:45.155Z,4.60
2019-06-20T05:23:14.144Z,4.50
2019-06-20T05:25:43.012Z,8.03
2019-06-20T05:28:11.889Z,3.80
2019-06-20T05:30:40.839Z,4.40
2019-06-20T05:33:09.724Z,5.20
2019-06-20T05:35:38.557Z,7.47
2019-06-20T05:38:07.483Z,6.20
2019-06-20T05:40:37.305Z,6.20
2019-06-20T05:43:06.417Z,8.00
2019-06-20T05:45:35.263Z,16.57
2019-06-20T05:48:04.458Z,5.15
2019-06-20T05:50:33.413Z,5.42
2019-06-20T05:53:02.285Z,5.85
2019-06-20T05:55:31.179Z,5.35
2019-06-20T05:58:00.115Z,5.60
2019-06-20T06:00:29.500Z,5.25
2019-06-20T06:02:58.387Z,4.80
2019-06-20T06:05:27.322Z,4.37
2019-06-20T06:07:56.198Z,3.87
2019-06-20T06:10:25.179Z,4.20
2019-06-20T06:12:54.122Z,4.50
2019-06-20T06:15:23.149Z,6.50
2019-06-20T06:17:52.195Z,4.58
2019-06-20T06:20:21.157Z,6.08
2019-06-20T06:22:49.957Z,4.55
2019-06-20T06:25:18.932Z,6.33
2019-06-20T06:27:47.853Z,5.42
2019-06-20T06:30:17.236Z,5.95
2019-06-20T06:32:46.133Z,7.37
2019-06-20T06:35:15.240Z,5.95
2019-06-20T06:37:44.134Z,6.28
2019-06-20T06:40:15.090Z,4.65
2019-06-20T06:42:43.935Z,4.60
2019-06-20T06:45:13.357Z,6.92
2019-06-20T06:47:42.302Z,4.55
2019-06-20T06:50:11.754Z,5.55
2019-06-20T06:52:40.635Z,4.25
2019-06-20T06:55:09.878Z,6.75
2019-06-20T06:57:38.737Z,5.28
2019-06-20T07:00:13.595Z,5.75
2019-06-20T07:02:42.521Z,4.95
2019-06-20T07:05:11.688Z,6.03
2019-06-20T07:07:40.598Z,5.67
2019-06-20T07:10:10.102Z,6.40
2019-06-20T07:12:39.015Z,4.62
2019-06-20T07:15:08.748Z,5.22
2019-06-20T07:17:37.628Z,7.08
2019-06-20T07:20:09.351Z,5.08
2019-06-20T07:22:38.249Z,6.33
2019-06-20T07:25:08.627Z,6.28
2019-06-20T07:27:37.494Z,8.30
2019-06-20T07:30:08.379Z,5.92
2019-06-20T07:32:37.350Z,6.28
2019-06-20T07:35:07.647Z,5.67
2019-06-20T07:37:36.552Z,7.35
2019-06-20T07:40:09.937Z,7.58
2019-06-20T07:42:39.171Z,6.28
2019-06-20T07:45:09.414Z,6.08
2019-06-20T07:47:38.473Z,7.83
2019-06-20T07:50:08.941Z,7.35
2019-06-20T07:52:37.816Z,10.13
2019-06-20T07:55:09.169Z,8.23
2019-06-20T07:57:38.084Z,9.33
2019-06-20T08:00:09.785Z,9.85
2019-06-20T08:02:38.820Z,7.60
2019-06-20T08:05:08.302Z,11.50
2019-06-20T08:07:37.198Z,7.47
2019-06-20T08:10:11.194Z,7.10
2019-06-20T08:12:40.071Z,7.92
2019-06-20T08:15:14.920Z,7.72
2019-06-20T08:17:40.019Z,10.98
2019-06-20T08:20:11.119Z,8.10
2019-06-20T08:22:40.082Z,9.75
2019-06-20T08:25:09.352Z,7.85
2019-06-20T08:27:51.560Z,10.30
2019-06-20T08:30:25.666Z,11.95
2019-06-20T08:32:57.434Z,8.85
2019-06-20T08:35:27.677Z,11.50
2019-06-20T08:37:59.184Z,13.22
2019-06-20T08:40:30.550Z,14.95
2019-06-20T08:43:00.170Z,12.55
2019-06-20T08:45:32.221Z,12.78
2019-06-20T08:48:02.450Z,15.98
2019-06-20T08:50:32.254Z,11.67
2019-06-20T08:53:01.697Z,14.50
2019-06-20T08:55:30.724Z,11.50
2019-06-20T08:58:01.263Z,13.15
2019-06-20T09:00:31.218Z,13.40
2019-06-20T09:03:00.563Z,13.50
2019-06-20T09:05:30.885Z,11.93
2019-06-20T09:10:40.883Z,15.10
2019-06-20T09:13:11.593Z,13.30
2019-06-20T09:15:40.981Z,13.18
2019-06-20T09:18:10.363Z,13.78
2019-06-20T09:20:39.667Z,17.35
2019-06-20T09:23:08.610Z,11.65
2019-06-20T09:25:37.687Z,12.53
2019-06-20T09:28:07.539Z,12.63
2019-06-20T09:30:37.397Z,12.88
2019-06-20T09:33:06.381Z,12.60
2019-06-20T09:35:35.284Z,9.75
2019-06-20T09:38:04.407Z,9.35
2019-06-20T09:40:33.248Z,12.28
2019-06-20T09:43:02.880Z,8.15
2019-06-20T09:45:32.559Z,8.90
2019-06-20T09:48:02.726Z,9.35
2019-06-20T09:50:31.793Z,7.60
2019-06-20T09:53:00.673Z,8.78
2019-06-20T09:55:29.539Z,6.40
2019-06-20T09:57:58.441Z,6.03
2019-06-20T10:00:28.907Z,8.45
2019-06-20T10:02:58.010Z,6.83
2019-06-20T10:05:26.849Z,6.12
2019-06-20T10:07:56.682Z,8.20
2019-06-20T10:10:30.402Z,6.55
2019-06-20T10:12:59.438Z,7.58
2019-06-20T10:15:31.053Z,6.10
2019-06-20T10:18:00.031Z,7.42
2019-06-20T10:20:29.212Z,6.78
2019-06-20T10:22:58.152Z,6.12
2019-06-20T10:25:26.991Z,7.05
2019-06-20T10:27:55.881Z,6.25
2019-06-20T10:30:26.342Z,6.67
2019-06-20T10:32:55.259Z,7.20
2019-06-20T10:35:24.154Z,7.58
2019-06-20T10:37:53.244Z,9.10
2019-06-20T10:40:22.990Z,8.75
2019-06-20T10:42:52.939Z,8.75
2019-06-20T10:45:24.520Z,6.42
2019-06-20T10:47:53.915Z,5.37
2019-06-20T10:50:23.314Z,5.12
2019-06-20T10:52:52.744Z,7.53
2019-06-20T10:55:21.680Z,7.55
2019-06-20T10:57:51.945Z,7.28
2019-06-20T11:00:30.785Z,8.10
2019-06-20T11:02:51.953Z,7.20
2019-06-20T11:05:21.007Z,7.72
2019-06-20T11:07:50.388Z,6.67
2019-06-20T11:10:19.722Z,7.40
2019-06-20T11:12:54.927Z,8.08
2019-06-20T11:15:20.576Z,9.33
2019-06-20T11:17:49.507Z,9.98
2019-06-20T11:20:18.953Z,8.45
2019-06-20T11:22:48.118Z,9.03
2019-06-20T11:25:19.348Z,13.88
2019-06-20T11:27:48.118Z,12.58
2019-06-20T11:30:28.915Z,12.20
2019-06-20T11:32:57.788Z,15.63
2019-06-20T11:35:26.676Z,10.82
2019-06-20T11:37:55.616Z,9.95
2019-06-20T11:40:24.627Z,10.13
2019-06-20T11:42:53.523Z,11.00
2019-06-20T11:45:22.803Z,11.00
2019-06-20T11:47:51.640Z,10.93
2019-06-20T11:50:22.284Z,9.38
2019-06-20T11:52:51.215Z,10.30
2019-06-20T11:55:20.269Z,13.75
2019-06-20T11:57:49.190Z,9.20
2019-06-20T12:00:20.388Z,8.60
2019-06-20T12:05:17.999Z,8.93
2019-06-20T12:07:47.889Z,8.53
2019-06-20T12:10:17.871Z,6.92
2019-06-20T12:12:47.002Z,8.15
2019-06-20T12:15:16.550Z,7.75
2019-06-20T12:17:46.969Z,5.70
2019-06-20T12:20:16.349Z,6.25
2019-06-20T12:22:46.507Z,7.20
2019-06-20T12:25:16.764Z,6.57
2019-06-20T12:27:47.169Z,9.78
2019-06-20T12:30:17.750Z,6.08
2019-06-20T12:32:46.882Z,7.13
2019-06-20T12:35:16.314Z,7.53
2019-06-20T12:37:45.310Z,5.80
2019-06-20T12:40:15.145Z,6.10
2019-06-20T12:42:44.863Z,7.20
2019-06-20T12:45:15.759Z,6.50
2019-06-20T12:47:45.903Z,6.60
2019-06-20T12:50:15.731Z,7.00
2019-06-20T12:52:45.735Z,10.43
2019-06-20T12:55:15.196Z,11.90
2019-06-20T12:57:44.323Z,6.80
2019-06-20T13:00:14.280Z,7.47
2019-06-20T13:02:43.740Z,7.53
2019-06-20T13:05:14.959Z,7.58
2019-06-20T13:07:44.333Z,11.65
2019-06-20T13:10:13.917Z,9.85
2019-06-20T13:12:44.217Z,12.55
2019-06-20T13:15:13.925Z,12.17
2019-06-20T13:17:43.654Z,13.75
2019-06-20T13:20:13.614Z,13.65
2019-06-20T13:22:42.923Z,13.55
2019-06-20T13:25:13.100Z,11.38
2019-06-20T13:27:43.256Z,12.60
2019-06-20T13:30:12.966Z,13.20
2019-06-20T13:32:43.313Z,10.53
2019-06-20T13:35:14.213Z,10.82
2019-06-20T13:37:43.544Z,12.25
2019-06-20T13:40:14.133Z,13.55
2019-06-20T13:42:44.149Z,12.00
2019-06-20T13:45:16.536Z,11.40
2019-06-20T13:47:45.844Z,9.45
2019-06-20T13:50:14.876Z,12.33
2019-06-20T13:52:46.434Z,13.15
2019-06-20T13:55:14.561Z,17.12
2019-06-20T13:57:45.107Z,11.95
2019-06-20T14:00:16.136Z,13.53
2019-06-20T14:02:46.913Z,13.98
2019-06-20T14:05:15.785Z,11.33
2019-06-20T14:07:48.499Z,10.23
2019-06-20T14:10:16.179Z,11.80
2019-06-20T14:12:45.008Z,9.68
2019-06-20T14:15:14.148Z,11.65
2019-06-20T14:17:43.265Z,10.70
2019-06-20T14:20:13.085Z,9.98
2019-06-20T14:22:42.921Z,13.98
2019-06-20T14:25:12.243Z,10.68
2019-06-20T14:27:42.340Z,10.75
2019-06-20T14:30:13.338Z,12.58
2019-06-20T14:32:43.184Z,14.13
2019-06-20T14:35:12.764Z,12.18
2019-06-20T14:37:43.451Z,10.30
2019-06-20T14:40:12.872Z,11.05
2019-06-20T14:42:42.779Z,10.58
2019-06-20T14:45:12.524Z,12.23
2019-06-20T14:47:41.375Z,14.10
2019-06-20T14:50:12.175Z,10.98
2019-06-20T14:52:40.965Z,13.85
2019-06-20T14:55:10.258Z,11.35
2019-06-20T14:57:40.125Z,13.40
2019-06-20T15:00:10.340Z,12.68
2019-06-20T15:02:39.314Z,11.10
2019-06-20T15:05:18.902Z,10.93
2019-06-20T15:07:49.537Z,10.55
2019-06-20T15:10:19.862Z,10.43
2019-06-20T15:12:50.279Z,10.45
2019-06-20T15:15:19.384Z,12.82
2019-06-20T15:17:50.288Z,11.35
2019-06-20T15:20:20.177Z,10.35
2019-06-20T15:22:50.694Z,9.83
2019-06-20T15:25:19.503Z,10.23
2019-06-20T15:27:50.214Z,9.15
2019-06-20T15:30:19.107Z,9.40
2019-06-20T15:32:59.000Z,10.95
2019-06-20T15:35:18.539Z,8.80
2019-06-20T15:37:48.463Z,11.63
2019-06-20T15:40:18.130Z,8.23
2019-06-20T15:42:51.530Z,8.68
2019-06-20T15:45:20.533Z,6.67
2019-06-20T15:47:49.427Z,5.83
2019-06-20T15:50:18.528Z,6.12
2019-06-20T15:52:47.427Z,6.45
2019-06-20T15:55:19.363Z,7.30
2019-06-20T15:57:48.306Z,6.60
2019-06-20T16:00:19.137Z,7.30
2019-06-20T16:02:48.115Z,6.87
2019-06-20T16:05:17.108Z,8.93
2019-06-20T16:07:46.058Z,6.87
2019-06-20T16:10:15.512Z,7.62
2019-06-20T16:12:44.441Z,7.60
2019-06-20T16:15:16.334Z,10.70
2019-06-20T16:17:45.132Z,10.38
2019-06-20T16:20:14.167Z,12.20
2019-06-20T16:22:43.078Z,10.85
2019-06-20T16:25:11.972Z,13.28
2019-06-20T16:27:40.866Z,13.40
2019-06-20T16:30:12.336Z,11.00
2019-06-20T16:35:09.852Z,6.75
2019-06-20T16:37:38.779Z,5.67
2019-06-20T16:40:09.972Z,4.60
2019-06-20T16:42:39.009Z,5.03
2019-06-20T16:45:09.650Z,4.50
2019-06-20T16:47:38.947Z,5.30
2019-06-20T16:50:09.573Z,6.35
2019-06-20T16:52:38.478Z,7.53
2019-06-20T16:55:08.276Z,6.00
2019-06-20T16:57:37.382Z,6.95
2019-06-20T17:00:11.331Z,7.92
2019-06-20T17:02:40.604Z,9.15
2019-06-20T17:05:09.772Z,10.75
2019-06-20T17:07:38.716Z,8.03
2019-06-20T17:10:08.869Z,7.12
2019-06-20T17:12:38.554Z,7.90
2019-06-20T17:15:08.029Z,8.95
2019-06-20T17:17:36.949Z,9.05
2019-06-20T17:20:08.608Z,9.55
2019-06-20T17:22:46.033Z,9.75
2019-06-20T17:25:15.143Z,8.28
2019-06-20T17:27:44.541Z,8.55
2019-06-20T17:30:16.401Z,13.15
2019-06-20T17:32:45.318Z,7.33
2019-06-20T17:35:14.807Z,8.40
2019-06-20T17:37:45.034Z,8.30
2019-06-20T17:40:15.996Z,10.40
2019-06-20T17:42:44.832Z,8.67
2019-06-20T17:45:15.754Z,8.13
2019-06-20T17:47:44.648Z,10.78
2019-06-20T17:50:15.307Z,7.78
2019-06-20T17:52:44.286Z,11.05
2019-06-20T17:55:13.946Z,8.10
2019-06-20T17:57:42.835Z,8.88
2019-06-20T18:00:16.983Z,10.23
2019-06-20T18:02:45.953Z,6.90
2019-06-20T18:05:16.409Z,11.25
2019-06-20T18:07:45.494Z,7.90
2019-06-20T18:10:16.450Z,4.22
2019-06-20T18:12:45.342Z,5.08
2019-06-20T18:15:14.853Z,4.12
2019-06-20T18:17:43.781Z,3.77
2019-06-20T18:20:12.929Z,5.65
2019-06-20T18:22:41.884Z,4.65
2019-06-20T18:25:12.080Z,3.85
2019-06-20T18:27:40.960Z,5.05
2019-06-20T18:30:11.123Z,3.60
2019-06-20T18:32:40.005Z,3.75
2019-06-20T18:35:09.097Z,3.65
2019-06-20T18:37:38.052Z,3.65
2019-06-20T18:40:11.316Z,3.72
2019-06-20T18:42:40.422Z,5.05
2019-06-20T18:45:10.108Z,3.98
2019-06-20T18:47:39.001Z,3.47
2019-06-20T18:50:08.746Z,4.08
2019-06-20T18:52:51.154Z,4.67
2019-06-20T18:55:08.815Z,5.73
2019-06-20T18:57:37.762Z,4.40
2019-06-20T19:00:11.118Z,7.10
2019-06-20T19:02:40.076Z,5.45
2019-06-20T19:05:09.957Z,5.85
2019-06-20T19:07:38.844Z,4.67
2019-06-20T19:10:10.664Z,6.05
2019-06-20T19:12:39.617Z,4.22
2019-06-20T19:15:09.440Z,4.58
2019-06-20T19:17:38.379Z,5.75
2019-06-20T19:20:08.051Z,4.67
2019-06-20T19:22:37.230Z,6.20
2019-06-20T19:25:07.633Z,5.92
2019-06-20T19:27:45.466Z,6.85
2019-06-20T19:30:08.396Z,5.40
2019-06-20T19:32:37.341Z,7.20
2019-06-20T19:35:10.181Z,6.62
2019-06-20T19:37:38.163Z,5.40
2019-06-20T19:40:08.394Z,4.85
2019-06-20T19:42:37.778Z,7.72
2019-06-20T19:45:09.654Z,5.28
2019-06-20T19:47:38.761Z,8.68
2019-06-20T19:50:08.189Z,4.83
2019-06-20T19:52:37.260Z,10.20
2019-06-20T19:55:06.381Z,5.33
2019-06-20T19:57:35.269Z,8.30
2019-06-20T20:00:07.075Z,5.62
2019-06-20T20:02:35.967Z,8.28
2019-06-20T20:05:18.427Z,4.90
2019-06-20T20:07:38.158Z,6.42
2019-06-20T20:10:09.309Z,7.20
2019-06-20T20:12:38.200Z,7.78
2019-06-20T20:15:11.748Z,6.58
2019-06-20T20:17:40.689Z,8.73
2019-06-20T20:20:11.010Z,8.43
2019-06-20T20:22:39.916Z,7.53
2019-06-20T20:25:09.614Z,7.00
2019-06-20T20:27:38.508Z,5.92
2019-06-20T20:30:11.586Z,11.65
2019-06-20T20:32:40.663Z,5.55
2019-06-20T20:35:10.104Z,7.55
2019-06-20T20:37:39.025Z,6.47
2019-06-20T20:40:08.840Z,5.08
2019-06-20T20:42:37.739Z,4.22
2019-06-20T20:45:09.872Z,8.98
2019-06-20T20:47:38.696Z,3.58
2019-06-20T20:50:10.140Z,5.50
2019-06-20T20:52:39.015Z,9.98
2019-06-20T20:55:09.291Z,2.58
2019-06-20T20:57:38.429Z,6.15
2019-06-20T21:00:12.113Z,6.58
2019-06-20T21:02:40.983Z,3.50
2019-06-20T21:05:09.897Z,6.47
2019-06-20T21:07:39.327Z,6.25
2019-06-20T21:10:08.892Z,5.47
2019-06-20T21:12:37.768Z,2.75
2019-06-20T21:15:08.527Z,4.40
2019-06-20T21:17:38.337Z,4.50
2019-06-20T21:20:07.855Z,5.08
2019-06-20T21:22:36.686Z,5.87
2019-06-20T21:25:07.334Z,4.45
2019-06-20T21:27:36.214Z,4.07
2019-06-20T21:30:08.092Z,6.58
2019-06-20T21:32:36.967Z,7.75
2019-06-20T21:35:07.300Z,2.40
2019-06-20T21:37:36.218Z,6.87
2019-06-20T21:40:07.468Z,6.92
2019-06-20T21:42:36.348Z,7.67
2019-06-20T21:45:09.340Z,5.25
2019-06-20T21:47:38.220Z,5.47
2019-06-20T21:50:07.372Z,4.22
2019-06-20T21:52:36.311Z,4.03
2019-06-20T21:55:07.313Z,8.18
2019-06-20T21:57:36.334Z,5.67
2019-06-20T22:00:11.193Z,2.98
2019-06-20T22:02:40.071Z,8.20
2019-06-20T22:05:10.757Z,2.22
2019-06-20T22:07:39.677Z,4.37
2019-06-20T22:10:08.662Z,4.00
2019-06-20T22:12:37.582Z,6.33
2019-06-20T22:15:07.588Z,6.37
2019-06-20T22:17:36.468Z,5.03
2019-06-20T22:20:09.758Z,4.90
2019-06-20T22:22:38.640Z,6.17
2019-06-20T22:25:08.257Z,5.15
2019-06-20T22:27:37.310Z,8.63
2019-06-20T22:30:13.726Z,8.28
2019-06-20T22:32:42.687Z,8.23
2019-06-20T22:35:11.951Z,6.92
2019-06-20T22:37:40.867Z,8.08
2019-06-20T22:40:10.473Z,10.53
2019-06-20T22:42:39.429Z,6.20
2019-06-20T22:45:09.032Z,6.78
2019-06-20T22:47:38.167Z,5.83
2019-06-20T22:50:09.295Z,9.03
2019-06-20T22:52:38.159Z,7.50
2019-06-20T22:55:07.254Z,7.83
2019-06-20T22:57:36.175Z,7.33
2019-06-20T23:00:08.267Z,9.60
2019-06-20T23:02:37.141Z,5.35
2019-06-20T23:05:06.725Z,7.35
2019-06-20T23:07:35.675Z,7.85
2019-06-20T23:10:10.985Z,13.03
2019-06-20T23:12:37.985Z,10.03
2019-06-20T23:15:08.122Z,6.22
2019-06-20T23:17:36.955Z,5.90
2019-06-20T23:20:07.636Z,7.72
2019-06-20T23:22:36.562Z,5.93
2019-06-20T23:25:07.728Z,6.78
2019-06-20T23:27:36.589Z,6.67
2019-06-20T23:30:13.503Z,8.78
2019-06-20T23:32:42.270Z,8.45
2019-06-20T23:35:11.616Z,8.78
2019-06-20T23:37:40.483Z,5.92
2019-06-20T23:40:10.167Z,8.13
2019-06-20T23:42:39.079Z,12.63
2019-06-20T23:45:09.152Z,6.35
2019-06-20T23:47:37.960Z,7.22
2019-06-20T23:50:10.182Z,11.08
2019-06-20T23:52:46.533Z,7.10
2019-06-20T23:55:15.448Z,7.67
2019-06-20T23:57:44.330Z,6.47
